Cairo, Egypt

7:55 PM EET on October 25, 2014 (GMT +0200)
Cairo International | Change Station
CLOSE
Current Station
Airport
Location: Cairo,
Elevation: 243 ft
Nearby Weather Stations

Elev 243 ft 30.11 °N, 31.41 °E | Updated -262 second ago

Clear
Clear
82 °F
Feels Like 82 °F
N
5
Wind Variable Wind from SE

Today
High -- | Low -- °F
--% Chance of Precip.
Yesterday
High -- | Low -- °F
Precip. -- in
6:02 AM 5:13 PM
Waxing Crescent, 4% visible
Pressure 29.95 in
Visibility -9999.0 miles
Clouds
Dew Point 41 °F
Humidity 23%
Rainfall 0.00 in
Snow Depth Not available.
UV Not available.
Pollen Not available.
Air Quality Not available.
Flu Activity Not available.
METAR HECA 251800Z 14004KT CAVOK 28/05 Q1014 NOSIG

More Conditions Fewer Conditions

Pressure 29.95 in
Visibility -9999.0 miles
Clouds
Dew Point 41 °F
Humidity 23%
Rainfall 0.00 in
Snow Depth Not available.
UV Not available.
Pollen Not available.
Air Quality Not available.
Flu Activity Not available.
METAR HECA 251800Z 14004KT CAVOK 28/05 Q1014 NOSIG

More Conditions Fewer Conditions

10-Day Weather Forecast

Almanac

Astronomy

Oct. 25, 2014 Rise Set
Actual Time 6:02 AM EET 5:13 PM EET
Civil Twilight 5:38 AM EET 5:37 PM EET
Nautical Twilight 5:10 AM EET 6:06 PM EET
Astronomical Twilight 4:42 AM EET 6:33 PM EET
Moon 7:17 AM EET 6:26 PM EET
Length of Visible Light 11h 59m
Length of Day
11h 10m
Tomorrow will be 1m 40s shorter.
Waxing Crescent, 4% of the Moon is Illuminated
Today
Waxing Crescent
Oct 30
First Quarter
Nov 6
Full
Nov 14
Last Quarter
Nov 22
New

Today's Extremes

Country Highs Country Lows

Community

WunderPhotos

Upload Photos

1,764,919 photos uploaded!

Nearby

Snow Depth

Not available.

Earthquake Activity

City Distance Mag. Time & Date
No recent earthquake activity has been reported nearby.
Minimum magnitude displayed is 2.5.

Coastal Water Temperatures

Place Temperature
No Stations Reporting

Nearby Weather Stations